createdAt,value
2022-09-06T00:00:06.903Z,4.38
2022-09-06T00:00:18.690Z,4.18
2022-09-06T00:00:30.123Z,4.22
2022-09-06T00:00:41.514Z,4.03
2022-09-06T00:00:52.882Z,3.95
2022-09-06T00:01:08.611Z,3.80
2022-09-06T00:01:19.913Z,3.80
2022-09-06T00:01:31.205Z,3.78
2022-09-06T00:01:42.550Z,3.88
2022-09-06T00:01:53.854Z,3.88
2022-09-06T00:02:05.159Z,3.92
2022-09-06T00:02:16.516Z,3.90
2022-09-06T00:02:31.440Z,4.18
2022-09-06T00:02:42.904Z,3.88
2022-09-06T00:02:54.547Z,3.65
2022-09-06T00:03:06.307Z,3.78
2022-09-06T00:03:17.680Z,4.00
2022-09-06T00:03:29.020Z,3.95
2022-09-06T00:03:40.904Z,4.28
2022-09-06T00:03:52.320Z,4.20
2022-09-06T00:04:03.748Z,3.67
2022-09-06T00:04:15.653Z,3.67
2022-09-06T00:04:27.137Z,3.50
2022-09-06T00:04:38.591Z,3.58
2022-09-06T00:04:49.926Z,3.83
2022-09-06T00:05:01.583Z,4.20
2022-09-06T00:05:13.444Z,4.10
2022-09-06T00:05:24.809Z,3.85
2022-09-06T00:05:36.139Z,3.90
2022-09-06T00:05:47.448Z,3.78
2022-09-06T00:05:58.738Z,4.00
2022-09-06T00:06:11.741Z,3.80
2022-09-06T00:06:23.082Z,3.83
2022-09-06T00:06:34.552Z,3.88
2022-09-06T00:06:45.897Z,4.00
2022-09-06T00:06:57.231Z,3.88
2022-09-06T00:07:08.543Z,3.85
2022-09-06T00:07:19.857Z,3.80
2022-09-06T00:07:31.282Z,3.92
2022-09-06T00:07:42.637Z,3.72
2022-09-06T00:07:54.067Z,3.97
2022-09-06T00:08:05.879Z,3.88
2022-09-06T00:08:17.227Z,3.92
2022-09-06T00:08:28.557Z,3.95
2022-09-06T00:08:40.245Z,3.95
2022-09-06T00:08:51.567Z,3.90
2022-09-06T00:09:03.222Z,4.30
2022-09-06T00:09:14.557Z,4.25
2022-09-06T00:09:25.880Z,4.32
2022-09-06T00:09:37.191Z,4.55
2022-09-06T00:09:48.487Z,4.68
2022-09-06T00:09:59.860Z,4.25
2022-09-06T00:10:12.153Z,3.53
2022-09-06T00:10:23.482Z,3.53
2022-09-06T00:10:34.957Z,3.85
2022-09-06T00:10:46.286Z,3.90
2022-09-06T00:11:00.854Z,3.80
2022-09-06T00:11:13.603Z,3.50
2022-09-06T00:11:24.993Z,3.42
2022-09-06T00:11:36.604Z,3.60
2022-09-06T00:11:47.907Z,3.90
2022-09-06T00:11:59.239Z,3.97
2022-09-06T00:12:10.575Z,3.85
2022-09-06T00:12:21.901Z,3.97
2022-09-06T00:12:33.272Z,3.90
2022-09-06T00:12:44.641Z,3.78
2022-09-06T00:12:56.395Z,3.70
2022-09-06T00:13:08.429Z,3.75
2022-09-06T00:13:19.756Z,3.67
2022-09-06T00:13:31.044Z,3.92
2022-09-06T00:13:42.365Z,3.90
2022-09-06T00:13:54.274Z,4.05
2022-09-06T00:14:05.697Z,3.78
2022-09-06T00:14:17.002Z,3.70
2022-09-06T00:14:28.307Z,3.67
2022-09-06T00:14:39.611Z,3.90
2022-09-06T00:14:51.283Z,3.85
2022-09-06T00:15:02.923Z,3.67
2022-09-06T00:15:14.251Z,3.35
2022-09-06T00:15:25.578Z,3.58
2022-09-06T00:15:37.434Z,3.95
2022-09-06T00:15:48.874Z,3.97
2022-09-06T00:16:07.600Z,4.22
2022-09-06T00:16:20.771Z,4.13
2022-09-06T00:16:32.171Z,4.32
2022-09-06T00:16:43.597Z,4.57
2022-09-06T00:16:54.919Z,4.63
2022-09-06T00:17:06.234Z,4.07
2022-09-06T00:17:17.916Z,4.05
2022-09-06T00:17:29.400Z,4.63
2022-09-06T00:17:41.658Z,4.88
2022-09-06T00:17:52.957Z,4.57
2022-09-06T00:18:05.687Z,4.55
2022-09-06T00:18:17.252Z,4.40
2022-09-06T00:18:28.603Z,4.38
2022-09-06T00:18:40.067Z,4.35
2022-09-06T00:18:54.575Z,3.97
2022-09-06T00:19:05.943Z,3.97
2022-09-06T00:19:17.259Z,4.30
2022-09-06T00:19:28.537Z,4.50
2022-09-06T00:19:39.847Z,4.32
2022-09-06T00:19:51.153Z,3.88
2022-09-06T00:20:03.733Z,3.75
2022-09-06T00:20:15.106Z,3.92
2022-09-06T00:20:26.858Z,4.00
2022-09-06T00:20:38.157Z,3.92
2022-09-06T00:20:49.474Z,4.22
2022-09-06T00:21:00.839Z,4.47
2022-09-06T00:21:16.813Z,4.40
2022-09-06T00:21:29.341Z,3.90
2022-09-06T00:21:40.658Z,3.92
2022-09-06T00:21:51.963Z,4.18
2022-09-06T00:22:03.295Z,4.10
2022-09-06T00:22:14.616Z,4.60
2022-09-06T00:22:25.951Z,4.45
2022-09-06T00:22:37.830Z,4.45
2022-09-06T00:22:49.113Z,4.43
2022-09-06T00:23:02.124Z,4.43
2022-09-06T00:23:13.495Z,4.40
2022-09-06T00:23:24.882Z,4.35
2022-09-06T00:23:36.217Z,4.38
2022-09-06T00:23:47.671Z,4.82
2022-09-06T00:23:59.009Z,5.60
2022-09-06T00:24:10.283Z,5.35
2022-09-06T00:24:21.619Z,5.35
2022-09-06T00:24:32.935Z,5.63
2022-09-06T00:24:44.221Z,6.70
2022-09-06T00:24:55.513Z,6.97
2022-09-06T00:25:07.271Z,5.80
2022-09-06T00:25:18.559Z,4.85
2022-09-06T00:25:30.122Z,4.40
2022-09-06T00:25:41.414Z,4.18
2022-09-06T00:25:52.716Z,4.03
2022-09-06T00:26:04.502Z,4.05
2022-09-06T00:26:16.180Z,4.40
2022-09-06T00:26:27.462Z,4.55
2022-09-06T00:26:38.766Z,5.38
2022-09-06T00:26:50.079Z,5.32
2022-09-06T00:27:01.418Z,5.43
2022-09-06T00:27:12.769Z,4.88
2022-09-06T00:27:24.045Z,4.22
2022-09-06T00:27:35.494Z,3.97
2022-09-06T00:27:46.816Z,4.28
2022-09-06T00:27:58.817Z,5.00
2022-09-06T00:28:10.133Z,5.30
2022-09-06T00:28:21.436Z,5.03
2022-09-06T00:28:32.817Z,4.25
2022-09-06T00:28:44.360Z,4.50
2022-09-06T00:28:55.649Z,4.55
2022-09-06T00:29:06.988Z,4.22
2022-09-06T00:29:18.372Z,4.28
2022-09-06T00:29:29.779Z,4.53
2022-09-06T00:29:41.085Z,4.57
2022-09-06T00:29:52.373Z,4.47
2022-09-06T00:30:04.105Z,4.25
2022-09-06T00:30:15.449Z,3.92
2022-09-06T00:30:27.325Z,3.83
2022-09-06T00:30:38.630Z,3.88
2022-09-06T00:30:49.974Z,4.05
2022-09-06T00:31:08.174Z,4.32
2022-09-06T00:31:20.963Z,4.30
2022-09-06T00:31:32.397Z,4.43
2022-09-06T00:31:43.770Z,5.20
2022-09-06T00:31:55.097Z,5.57
2022-09-06T00:32:06.436Z,5.05
2022-09-06T00:32:17.738Z,4.38
2022-09-06T00:32:29.073Z,3.80
2022-09-06T00:32:40.377Z,4.10
2022-09-06T00:32:51.683Z,4.40
2022-09-06T00:33:03.073Z,4.28
2022-09-06T00:33:14.377Z,4.40
2022-09-06T00:33:25.698Z,4.50
2022-09-06T00:33:37.137Z,4.60
2022-09-06T00:33:48.530Z,4.43
2022-09-06T00:33:59.849Z,4.20
2022-09-06T00:34:11.193Z,4.10
2022-09-06T00:34:22.519Z,3.97
2022-09-06T00:34:33.969Z,4.13
2022-09-06T00:34:45.314Z,4.10
2022-09-06T00:34:56.628Z,4.47
2022-09-06T00:35:07.996Z,4.68
2022-09-06T00:35:19.770Z,4.80
2022-09-06T00:35:31.183Z,4.57
2022-09-06T00:35:42.470Z,4.75
2022-09-06T00:35:58.248Z,4.78
2022-09-06T00:36:10.174Z,4.63
2022-09-06T00:36:22.116Z,4.60
2022-09-06T00:36:33.435Z,4.40
2022-09-06T00:36:46.618Z,4.40
2022-09-06T00:36:58.744Z,4.20
2022-09-06T00:37:10.076Z,4.53
2022-09-06T00:37:21.368Z,5.13
2022-09-06T00:37:32.680Z,4.97
2022-09-06T00:37:44.286Z,4.80
2022-09-06T00:37:59.200Z,4.70
2022-09-06T00:38:10.491Z,4.55
2022-09-06T00:38:21.799Z,4.60
2022-09-06T00:38:33.453Z,4.55
2022-09-06T00:38:44.884Z,4.55
2022-09-06T00:38:56.176Z,4.63
2022-09-06T00:39:07.523Z,4.65
2022-09-06T00:39:18.825Z,4.40
2022-09-06T00:39:30.197Z,4.43
2022-09-06T00:39:41.658Z,4.70
2022-09-06T00:39:53.097Z,4.80
2022-09-06T00:40:04.697Z,4.78
2022-09-06T00:40:16.355Z,4.60
2022-09-06T00:40:28.811Z,4.40
2022-09-06T00:40:40.122Z,4.35
2022-09-06T00:40:51.457Z,4.32
2022-09-06T00:41:03.313Z,4.55
2022-09-06T00:41:15.475Z,4.47
2022-09-06T00:41:26.792Z,4.32
2022-09-06T00:41:38.241Z,4.43
2022-09-06T00:41:49.732Z,4.43
2022-09-06T00:42:01.068Z,4.22
2022-09-06T00:42:13.036Z,4.45
2022-09-06T00:42:24.374Z,4.68
2022-09-06T00:42:35.705Z,5.13
2022-09-06T00:42:47.023Z,5.05
2022-09-06T00:42:58.447Z,5.15
2022-09-06T00:43:09.740Z,5.00
2022-09-06T00:43:21.038Z,4.93
2022-09-06T00:43:32.354Z,4.88
2022-09-06T00:43:43.896Z,4.88
2022-09-06T00:43:55.228Z,5.03
2022-09-06T00:44:06.640Z,4.95
2022-09-06T00:44:17.953Z,4.63
2022-09-06T00:44:29.273Z,4.30
2022-09-06T00:44:40.632Z,4.22
2022-09-06T00:44:51.948Z,4.07
2022-09-06T00:45:04.189Z,4.03
2022-09-06T00:45:15.547Z,4.00
2022-09-06T00:45:27.930Z,3.85
2022-09-06T00:45:39.265Z,3.85
2022-09-06T00:45:50.978Z,3.92
2022-09-06T00:46:03.222Z,4.10
2022-09-06T00:46:19.504Z,4.20
2022-09-06T00:46:31.539Z,4.30
2022-09-06T00:46:45.189Z,4.43
2022-09-06T00:46:56.537Z,4.60
2022-09-06T00:47:08.362Z,4.57
2022-09-06T00:47:19.713Z,4.60
2022-09-06T00:47:31.054Z,4.65
2022-09-06T00:47:43.019Z,4.57
2022-09-06T00:47:54.592Z,4.75
2022-09-06T00:48:05.905Z,4.95
2022-09-06T00:48:17.546Z,4.53
2022-09-06T00:48:29.133Z,4.28
2022-09-06T00:48:40.852Z,4.32
2022-09-06T00:48:54.123Z,4.80
2022-09-06T00:49:08.052Z,4.95
2022-09-06T00:49:22.301Z,4.60
2022-09-06T00:49:42.429Z,4.78
2022-09-06T00:49:54.874Z,4.40
2022-09-06T00:50:06.925Z,4.13
2022-09-06T00:50:19.028Z,4.18
2022-09-06T00:50:31.863Z,4.03
2022-09-06T00:50:44.132Z,3.92
2022-09-06T00:50:58.821Z,4.55
2022-09-06T00:51:11.261Z,4.93
2022-09-06T00:51:24.470Z,4.68
2022-09-06T00:51:35.916Z,4.80
2022-09-06T00:51:47.250Z,4.78
2022-09-06T00:52:01.330Z,4.30
2022-09-06T00:52:13.993Z,4.35
2022-09-06T00:52:25.951Z,4.30
2022-09-06T00:52:37.933Z,4.10
2022-09-06T00:52:50.081Z,4.10
2022-09-06T00:53:01.481Z,4.25
2022-09-06T00:53:12.850Z,4.28
2022-09-06T00:53:24.344Z,4.03
2022-09-06T00:53:35.641Z,3.95
2022-09-06T00:53:46.979Z,3.78
2022-09-06T00:53:58.854Z,3.95
2022-09-06T00:54:10.177Z,3.90
2022-09-06T00:54:21.496Z,4.07
2022-09-06T00:54:33.153Z,4.30
2022-09-06T00:54:44.477Z,4.55
2022-09-06T00:54:56.133Z,4.60
2022-09-06T00:55:07.677Z,4.38
2022-09-06T00:55:19.539Z,4.32
2022-09-06T00:55:30.864Z,4.28
2022-09-06T00:55:42.530Z,4.28
2022-09-06T00:55:54.654Z,4.38
2022-09-06T00:56:06.107Z,4.30
2022-09-06T00:56:17.524Z,4.40
2022-09-06T00:56:28.974Z,4.40
2022-09-06T00:56:41.734Z,4.35
2022-09-06T00:56:54.338Z,4.18
2022-09-06T00:57:05.974Z,4.28
2022-09-06T00:57:18.044Z,4.50
2022-09-06T00:57:29.566Z,4.20
2022-09-06T00:57:41.052Z,4.13
2022-09-06T00:57:52.600Z,4.05
2022-09-06T00:58:03.928Z,3.80
2022-09-06T00:58:15.702Z,3.95
2022-09-06T00:58:27.345Z,4.00
2022-09-06T00:58:39.052Z,4.05
2022-09-06T00:58:50.429Z,4.40
2022-09-06T00:59:01.774Z,4.70
2022-09-06T00:59:13.270Z,4.40
2022-09-06T00:59:25.310Z,4.20
2022-09-06T00:59:37.844Z,3.90
2022-09-06T00:59:50.054Z,3.80
2022-09-06T01:00:02.235Z,4.32
2022-09-06T01:00:13.784Z,4.93
2022-09-06T01:00:25.113Z,5.07
2022-09-06T01:00:36.572Z,4.90
2022-09-06T01:00:47.854Z,4.75
2022-09-06T01:00:59.158Z,4.75
2022-09-06T01:01:10.709Z,4.38
2022-09-06T01:01:22.194Z,4.45
2022-09-06T01:01:33.694Z,4.55
2022-09-06T01:01:45.205Z,4.83
2022-09-06T01:01:56.908Z,4.80
2022-09-06T01:02:08.436Z,4.65
2022-09-06T01:02:20.357Z,4.68
2022-09-06T01:02:31.869Z,4.40
2022-09-06T01:02:43.765Z,4.13
2022-09-06T01:02:55.235Z,4.18
2022-09-06T01:03:07.011Z,4.38
2022-09-06T01:03:18.325Z,4.68
2022-09-06T01:03:29.652Z,4.47
2022-09-06T01:03:41.222Z,4.50
2022-09-06T01:03:52.554Z,4.55
2022-09-06T01:04:04.096Z,4.60
2022-09-06T01:04:15.691Z,4.28
2022-09-06T01:04:27.339Z,3.95
2022-09-06T01:04:39.335Z,3.90
2022-09-06T01:04:50.719Z,3.95
2022-09-06T01:05:02.652Z,4.10
2022-09-06T01:05:14.323Z,4.15
2022-09-06T01:05:27.761Z,4.35
2022-09-06T01:05:48.313Z,4.50
2022-09-06T01:06:14.048Z,4.40
2022-09-06T01:06:25.360Z,4.10
2022-09-06T01:06:36.629Z,4.10
2022-09-06T01:06:56.766Z,3.95
2022-09-06T01:07:20.433Z,4.47
2022-09-06T01:07:47.232Z,4.93
2022-09-06T01:07:58.500Z,4.63
2022-09-06T01:08:15.815Z,4.47
2022-09-06T01:08:39.236Z,4.18
2022-09-06T01:08:59.694Z,4.13
2022-09-06T01:09:13.991Z,3.83
2022-09-06T01:09:28.298Z,4.00
2022-09-06T01:09:57.830Z,4.10
2022-09-06T01:10:31.600Z,4.10
2022-09-06T01:10:51.533Z,4.07
2022-09-06T01:11:10.233Z,3.95
2022-09-06T01:11:40.212Z,4.10
2022-09-06T01:12:06.638Z,4.28
2022-09-06T01:12:26.166Z,4.13
2022-09-06T01:12:46.632Z,3.90
2022-09-06T01:13:16.358Z,4.03
2022-09-06T01:13:43.025Z,4.43
2022-09-06T01:14:08.170Z,4.30
2022-09-06T01:14:38.295Z,4.30
2022-09-06T01:15:00.839Z,4.10
2022-09-06T01:15:12.129Z,4.28
2022-09-06T01:15:32.479Z,4.18
2022-09-06T01:15:58.297Z,4.50
2022-09-06T01:16:21.620Z,4.65
2022-09-06T01:16:32.871Z,3.72
2022-09-06T01:16:53.766Z,3.97
2022-09-06T01:17:20.247Z,4.25
2022-09-06T01:17:50.312Z,4.53
2022-09-06T01:18:20.328Z,4.03
2022-09-06T01:18:59.401Z,4.15
2022-09-06T01:19:38.150Z,4.22
2022-09-06T01:19:52.476Z,4.10
2022-09-06T01:20:09.574Z,4.22
2022-09-06T01:20:20.840Z,4.38
2022-09-06T01:20:45.039Z,4.40
2022-09-06T01:21:15.160Z,4.40
2022-09-06T01:21:34.837Z,4.10
2022-09-06T01:22:02.572Z,4.30
2022-09-06T01:22:13.880Z,4.40
2022-09-06T01:22:37.051Z,4.57
2022-09-06T01:22:51.381Z,4.63
2022-09-06T01:23:21.513Z,3.88
2022-09-06T01:23:35.580Z,4.25
2022-09-06T01:23:49.846Z,4.05
2022-09-06T01:24:10.224Z,3.72
2022-09-06T01:24:41.751Z,3.85
2022-09-06T01:25:01.818Z,4.07
2022-09-06T01:25:25.307Z,4.00
2022-09-06T01:25:44.940Z,3.63
2022-09-06T01:25:56.319Z,3.75
2022-09-06T01:26:16.741Z,4.22
2022-09-06T01:26:37.006Z,4.07
2022-09-06T01:26:48.310Z,3.75
2022-09-06T01:27:11.580Z,3.92
2022-09-06T01:27:22.886Z,3.90
2022-09-06T01:27:34.201Z,3.88
2022-09-06T01:28:04.094Z,4.00
2022-09-06T01:28:25.559Z,3.83
2022-09-06T01:28:41.602Z,3.90
2022-09-06T01:28:53.184Z,4.10
2022-09-06T01:29:06.948Z,4.03
2022-09-06T01:29:28.971Z,3.60
2022-09-06T01:29:46.206Z,3.45
2022-09-06T01:30:02.121Z,3.80
2022-09-06T01:30:14.420Z,4.57
2022-09-06T01:30:25.714Z,4.57
2022-09-06T01:30:41.054Z,3.97
2022-09-06T01:30:57.752Z,4.10
2022-09-06T01:31:31.821Z,4.43
2022-09-06T01:31:50.509Z,3.70
2022-09-06T01:32:10.047Z,3.85
2022-09-06T01:32:39.991Z,3.72
2022-09-06T01:32:56.126Z,4.00
2022-09-06T01:33:26.594Z,3.97
2022-09-06T01:33:43.653Z,3.80
2022-09-06T01:34:03.830Z,3.85
2022-09-06T01:34:22.164Z,3.75
2022-09-06T01:34:46.207Z,3.92
2022-09-06T01:35:18.235Z,4.13
2022-09-06T01:35:40.935Z,4.18
2022-09-06T01:35:57.686Z,4.13
2022-09-06T01:36:11.149Z,4.05
2022-09-06T01:36:24.339Z,4.13
2022-09-06T01:36:45.926Z,4.18
2022-09-06T01:37:10.644Z,3.80
2022-09-06T01:37:23.053Z,3.70
2022-09-06T01:37:34.409Z,3.78
2022-09-06T01:37:45.788Z,3.70
2022-09-06T01:37:57.713Z,4.00
2022-09-06T01:38:09.190Z,4.07
2022-09-06T01:38:20.722Z,4.32
2022-09-06T01:38:32.124Z,4.13
2022-09-06T01:38:43.623Z,4.03
2022-09-06T01:38:54.904Z,3.90
2022-09-06T01:39:06.445Z,3.92
2022-09-06T01:39:22.689Z,3.95
2022-09-06T01:39:35.077Z,4.07
2022-09-06T01:39:46.478Z,3.95
2022-09-06T01:39:57.892Z,3.88
2022-09-06T01:40:09.393Z,3.78
2022-09-06T01:40:20.724Z,4.15
2022-09-06T01:40:32.009Z,4.07
2022-09-06T01:40:43.315Z,4.15
2022-09-06T01:40:54.622Z,4.07
2022-09-06T01:41:05.933Z,4.07
2022-09-06T01:41:17.244Z,4.00
2022-09-06T01:41:28.887Z,3.90
2022-09-06T01:41:40.191Z,3.95
2022-09-06T01:41:51.850Z,3.78
2022-09-06T01:42:23.429Z,3.88
2022-09-06T01:42:35.542Z,4.00
2022-09-06T01:42:47.677Z,4.03
2022-09-06T01:42:59.015Z,3.88
2022-09-06T01:43:11.341Z,3.80
2022-09-06T01:43:27.669Z,3.90
2022-09-06T01:43:40.843Z,4.00
2022-09-06T01:43:53.364Z,4.05
2022-09-06T01:44:04.678Z,3.90
2022-09-06T01:44:16.138Z,3.95
2022-09-06T01:44:27.849Z,4.00
2022-09-06T01:44:47.119Z,3.95
2022-09-06T01:45:00.190Z,3.60
2022-09-06T01:45:14.402Z,3.63
2022-09-06T01:45:37.762Z,3.80
2022-09-06T01:45:49.077Z,4.00
2022-09-06T01:46:03.702Z,4.13
2022-09-06T01:46:15.110Z,4.07
2022-09-06T01:46:59.023Z,4.07
2022-09-06T01:47:19.010Z,3.58
2022-09-06T01:47:36.060Z,3.85
2022-09-06T01:47:59.027Z,3.88
2022-09-06T01:48:19.181Z,3.60
2022-09-06T01:48:30.483Z,4.28
2022-09-06T01:48:47.832Z,4.38
2022-09-06T01:49:07.345Z,4.05
2022-09-06T01:49:30.678Z,4.07
2022-09-06T01:49:54.454Z,4.40
2022-09-06T01:50:05.768Z,3.97
2022-09-06T01:50:23.133Z,3.70
2022-09-06T01:50:45.500Z,4.20
2022-09-06T01:51:02.799Z,4.00
2022-09-06T01:51:14.079Z,4.05
2022-09-06T01:51:27.951Z,4.53
2022-09-06T01:51:39.242Z,4.53
2022-09-06T01:52:09.180Z,4.22
2022-09-06T01:52:25.594Z,3.90
2022-09-06T01:52:36.885Z,4.15
2022-09-06T01:52:48.167Z,4.13
2022-09-06T01:53:18.310Z,3.97
2022-09-06T01:53:35.467Z,4.53
2022-09-06T01:53:59.069Z,4.22
2022-09-06T01:54:10.365Z,4.45
2022-09-06T01:54:46.890Z,4.47
2022-09-06T01:55:03.953Z,4.50
2022-09-06T01:55:27.151Z,4.20
2022-09-06T01:55:51.295Z,4.47
2022-09-06T01:56:08.675Z,4.60
2022-09-06T01:56:24.692Z,4.28
2022-09-06T01:56:38.744Z,4.05
2022-09-06T01:56:53.081Z,4.32
2022-09-06T01:57:07.155Z,4.60
2022-09-06T01:57:24.136Z,4.32
2022-09-06T01:57:48.946Z,4.38
2022-09-06T01:58:09.213Z,4.50
2022-09-06T01:58:23.376Z,4.43
2022-09-06T01:58:37.536Z,4.72
2022-09-06T01:59:07.349Z,4.97
2022-09-06T01:59:24.838Z,5.05
2022-09-06T01:59:41.986Z,4.43
2022-09-06T02:00:05.676Z,4.20
2022-09-06T02:00:18.696Z,4.60
2022-09-06T02:00:30.321Z,4.40
2022-09-06T02:00:47.814Z,4.10
2022-09-06T02:01:08.243Z,3.90
2022-09-06T02:01:22.371Z,4.30
2022-09-06T02:01:39.612Z,4.40
2022-09-06T02:02:11.298Z,4.30
2022-09-06T02:02:22.676Z,4.13
2022-09-06T02:02:34.061Z,4.00
2022-09-06T02:03:00.690Z,3.97
2022-09-06T02:03:35.385Z,3.78
2022-09-06T02:03:58.527Z,4.20
2022-09-06T02:04:10.063Z,4.35
2022-09-06T02:04:24.456Z,4.07
2022-09-06T02:04:42.695Z,4.60
2022-09-06T02:04:59.869Z,4.60
2022-09-06T02:05:14.143Z,4.40
2022-09-06T02:05:44.161Z,4.03
2022-09-06T02:06:03.251Z,4.10
2022-09-06T02:06:19.606Z,3.92
2022-09-06T02:06:32.680Z,4.00
2022-09-06T02:06:47.086Z,4.18
2022-09-06T02:07:01.479Z,3.95
2022-09-06T02:07:18.888Z,3.72
2022-09-06T02:07:31.988Z,4.10
2022-09-06T02:07:44.423Z,4.40
2022-09-06T02:07:58.666Z,4.15
2022-09-06T02:08:12.812Z,4.20
2022-09-06T02:08:28.042Z,4.63
2022-09-06T02:08:42.115Z,4.53
2022-09-06T02:08:55.697Z,4.45
2022-09-06T02:09:10.287Z,4.65
2022-09-06T02:09:23.625Z,4.68
2022-09-06T02:09:37.371Z,4.30
2022-09-06T02:09:51.204Z,3.90
2022-09-06T02:10:07.894Z,3.92
2022-09-06T02:10:19.179Z,4.35
2022-09-06T02:10:33.966Z,4.25
2022-09-06T02:10:47.557Z,4.00
2022-09-06T02:11:00.638Z,4.18
2022-09-06T02:11:13.587Z,4.43
2022-09-06T02:11:27.277Z,4.07
2022-09-06T02:11:48.250Z,4.10
2022-09-06T02:12:00.447Z,4.28
2022-09-06T02:12:12.706Z,3.90
2022-09-06T02:12:25.256Z,3.80
2022-09-06T02:12:39.181Z,4.00
2022-09-06T02:12:52.914Z,3.95
2022-09-06T02:13:06.034Z,3.92
2022-09-06T02:13:17.980Z,4.00
2022-09-06T02:13:33.868Z,4.05
2022-09-06T02:13:46.874Z,4.43
2022-09-06T02:14:01.057Z,4.40
2022-09-06T02:14:15.897Z,4.22
2022-09-06T02:14:32.700Z,4.30
2022-09-06T02:14:48.554Z,4.57
2022-09-06T02:15:11.007Z,4.40
2022-09-06T02:15:28.561Z,4.53
2022-09-06T02:15:44.476Z,4.68
2022-09-06T02:16:01.619Z,4.18
2022-09-06T02:16:15.816Z,4.00
2022-09-06T02:16:29.072Z,4.15
2022-09-06T02:16:41.999Z,4.55
2022-09-06T02:16:54.780Z,4.50
2022-09-06T02:17:07.672Z,4.13
2022-09-06T02:17:21.189Z,3.83
2022-09-06T02:17:34.387Z,4.05
2022-09-06T02:17:50.300Z,4.35
2022-09-06T02:18:07.137Z,4.32
2022-09-06T02:18:22.147Z,4.07
2022-09-06T02:18:40.124Z,3.80
2022-09-06T02:18:54.006Z,3.72
2022-09-06T02:19:23.894Z,3.80
2022-09-06T02:19:50.444Z,3.90
2022-09-06T02:20:14.779Z,4.05
2022-09-06T02:20:29.084Z,3.70
2022-09-06T02:20:47.323Z,3.75
2022-09-06T02:21:00.171Z,3.90
2022-09-06T02:21:13.167Z,4.40
2022-09-06T02:21:27.928Z,4.80
2022-09-06T02:21:42.052Z,4.20
2022-09-06T02:21:54.566Z,3.65
2022-09-06T02:22:07.973Z,4.05
2022-09-06T02:22:23.124Z,4.18
2022-09-06T02:22:36.542Z,3.95
2022-09-06T02:22:49.303Z,4.30
2022-09-06T02:23:03.406Z,4.10
2022-09-06T02:23:15.064Z,4.15
2022-09-06T02:23:28.883Z,4.40
2022-09-06T02:23:42.055Z,4.47
2022-09-06T02:23:54.457Z,4.35
2022-09-06T02:24:08.435Z,4.18
2022-09-06T02:24:21.409Z,4.00
2022-09-06T02:24:33.947Z,4.22
2022-09-06T02:24:47.436Z,4.30
2022-09-06T02:25:00.225Z,4.28
2022-09-06T02:25:14.148Z,4.32
2022-09-06T02:25:27.430Z,4.57
2022-09-06T02:25:39.947Z,4.32
2022-09-06T02:25:53.643Z,4.00
2022-09-06T02:26:07.972Z,3.88
2022-09-06T02:26:22.650Z,4.00
2022-09-06T02:26:35.571Z,4.18
2022-09-06T02:26:47.384Z,4.55
2022-09-06T02:26:58.767Z,4.40
2022-09-06T02:27:10.994Z,4.60
2022-09-06T02:27:22.320Z,4.13
2022-09-06T02:27:33.649Z,3.78
2022-09-06T02:27:45.024Z,3.85
2022-09-06T02:27:56.399Z,4.20
2022-09-06T02:28:08.920Z,3.97
2022-09-06T02:28:20.864Z,3.90
2022-09-06T02:28:32.474Z,4.05
2022-09-06T02:28:43.804Z,4.50
2022-09-06T02:28:55.389Z,4.60
2022-09-06T02:29:06.780Z,4.40
2022-09-06T02:29:18.448Z,4.20
2022-09-06T02:29:29.829Z,4.40
2022-09-06T02:29:41.284Z,4.47
2022-09-06T02:29:52.774Z,4.45
2022-09-06T02:30:05.386Z,4.38
2022-09-06T02:30:16.959Z,4.13
2022-09-06T02:30:28.577Z,3.92
2022-09-06T02:30:41.544Z,3.88
2022-09-06T02:30:55.601Z,3.90
2022-09-06T02:31:32.793Z,4.15
2022-09-06T02:31:52.376Z,4.25
2022-09-06T02:32:03.732Z,4.30
2022-09-06T02:32:18.451Z,4.10
2022-09-06T02:32:30.633Z,4.10
2022-09-06T02:32:48.017Z,4.20
2022-09-06T02:33:02.275Z,4.28
2022-09-06T02:33:18.710Z,4.10
2022-09-06T02:33:31.623Z,4.32
2022-09-06T02:33:44.157Z,4.40
2022-09-06T02:33:55.579Z,4.28
2022-09-06T02:34:07.148Z,4.70
2022-09-06T02:34:19.346Z,5.00
2022-09-06T02:34:30.708Z,5.15
2022-09-06T02:34:42.113Z,4.57
2022-09-06T02:34:54.665Z,3.85
2022-09-06T02:35:08.736Z,3.65
2022-09-06T02:35:20.111Z,4.10
2022-09-06T02:35:31.553Z,4.25
2022-09-06T02:35:46.956Z,4.10
2022-09-06T02:36:02.339Z,3.92
2022-09-06T02:36:13.708Z,3.95
2022-09-06T02:36:25.348Z,4.03
2022-09-06T02:36:37.007Z,3.90
2022-09-06T02:36:48.394Z,4.03
2022-09-06T02:37:00.238Z,4.15
2022-09-06T02:37:12.322Z,4.43
2022-09-06T02:37:24.403Z,4.20
2022-09-06T02:37:35.744Z,3.92
2022-09-06T02:37:47.059Z,3.85
2022-09-06T02:37:58.404Z,4.00
2022-09-06T02:38:09.748Z,4.15
2022-09-06T02:38:22.486Z,4.22
2022-09-06T02:38:34.789Z,4.20
2022-09-06T02:38:46.578Z,4.10
2022-09-06T02:38:59.837Z,4.00
2022-09-06T02:39:11.680Z,3.80
2022-09-06T02:39:23.106Z,3.90
2022-09-06T02:39:34.510Z,3.83
2022-09-06T02:39:45.951Z,4.00
2022-09-06T02:39:57.343Z,4.03
2022-09-06T02:40:09.197Z,4.28
2022-09-06T02:40:20.655Z,4.30
2022-09-06T02:40:33.012Z,4.18
2022-09-06T02:40:45.206Z,4.25
2022-09-06T02:40:56.745Z,4.30
2022-09-06T02:41:08.749Z,4.20
2022-09-06T02:41:21.547Z,4.05
2022-09-06T02:41:33.248Z,4.15
2022-09-06T02:41:46.306Z,4.35
2022-09-06T02:41:57.912Z,4.47
2022-09-06T02:42:09.736Z,4.38
2022-09-06T02:42:22.123Z,4.22
2022-09-06T02:42:33.638Z,4.53
2022-09-06T02:42:44.959Z,4.78
2022-09-06T02:42:56.260Z,4.65
2022-09-06T02:43:07.710Z,4.28
2022-09-06T02:43:19.052Z,4.15
2022-09-06T02:43:30.423Z,4.15
2022-09-06T02:43:42.709Z,4.25
2022-09-06T02:43:54.014Z,4.35
2022-09-06T02:44:05.299Z,4.40
2022-09-06T02:44:16.613Z,4.38
2022-09-06T02:44:28.074Z,4.13
2022-09-06T02:44:39.402Z,4.15
2022-09-06T02:44:50.868Z,4.30
2022-09-06T02:45:02.193Z,4.53
2022-09-06T02:45:13.641Z,4.60
2022-09-06T02:45:25.054Z,4.50
2022-09-06T02:45:36.436Z,4.80
2022-09-06T02:45:47.890Z,4.75
2022-09-06T02:45:59.598Z,4.45
2022-09-06T02:46:11.033Z,4.32
2022-09-06T02:46:22.435Z,4.55
2022-09-06T02:46:33.815Z,4.57
2022-09-06T02:46:45.149Z,4.57
2022-09-06T02:46:57.246Z,4.47
2022-09-06T02:47:08.862Z,4.50
2022-09-06T02:47:20.173Z,4.82
2022-09-06T02:47:31.560Z,4.88
2022-09-06T02:47:42.872Z,4.63
2022-09-06T02:47:54.190Z,4.60
2022-09-06T02:48:05.535Z,4.60
2022-09-06T02:48:16.829Z,4.88
2022-09-06T02:48:28.426Z,4.55
2022-09-06T02:48:39.779Z,4.43
2022-09-06T02:48:51.434Z,4.60
2022-09-06T02:49:02.776Z,4.68
2022-09-06T02:49:14.112Z,4.70
2022-09-06T02:49:25.392Z,4.57
2022-09-06T02:49:36.692Z,4.35
2022-09-06T02:49:47.993Z,4.40
2022-09-06T02:49:59.299Z,4.22
2022-09-06T02:50:10.607Z,4.35
2022-09-06T02:50:21.916Z,4.60
2022-09-06T02:50:33.229Z,4.68
2022-09-06T02:50:44.548Z,4.63
2022-09-06T02:50:55.846Z,4.57
2022-09-06T02:51:08.062Z,4.82
2022-09-06T02:51:19.441Z,4.43
2022-09-06T02:51:30.926Z,4.38
2022-09-06T02:51:42.246Z,4.30
2022-09-06T02:51:53.547Z,4.25
2022-09-06T02:52:04.846Z,4.18
2022-09-06T02:52:16.138Z,4.40
2022-09-06T02:52:27.489Z,4.50
2022-09-06T02:52:38.805Z,4.45
2022-09-06T02:53:07.345Z,4.30
2022-09-06T02:53:18.711Z,4.75
2022-09-06T02:53:30.031Z,4.60
2022-09-06T02:53:41.436Z,4.15
2022-09-06T02:53:52.820Z,4.28
2022-09-06T02:54:04.140Z,4.47
2022-09-06T02:54:15.428Z,4.68
2022-09-06T02:54:26.752Z,4.22
2022-09-06T02:54:38.067Z,3.95
2022-09-06T02:54:49.387Z,3.80
2022-09-06T02:55:00.717Z,3.95
2022-09-06T02:55:12.040Z,4.40
2022-09-06T02:55:23.323Z,4.60
2022-09-06T02:55:34.877Z,4.60
2022-09-06T02:55:46.959Z,4.25
2022-09-06T02:55:58.298Z,4.32
2022-09-06T02:56:09.679Z,4.45
2022-09-06T02:56:20.985Z,4.40
2022-09-06T02:56:32.469Z,4.30
2022-09-06T02:56:43.780Z,4.18
2022-09-06T02:56:55.078Z,4.20
2022-09-06T02:57:06.425Z,4.35
2022-09-06T02:57:17.720Z,4.43
2022-09-06T02:57:29.019Z,4.47
2022-09-06T02:57:40.322Z,4.18
2022-09-06T02:57:51.663Z,4.13
2022-09-06T02:58:03.492Z,4.00
2022-09-06T02:58:14.978Z,4.32
2022-09-06T02:58:26.784Z,3.97
2022-09-06T02:58:38.341Z,4.25
2022-09-06T02:58:49.651Z,4.40
2022-09-06T02:59:00.963Z,4.97
2022-09-06T02:59:12.287Z,4.70
2022-09-06T02:59:23.594Z,4.55
2022-09-06T02:59:34.914Z,4.18
2022-09-06T02:59:46.232Z,4.07
2022-09-06T02:59:57.520Z,3.80
2022-09-06T03:00:09.387Z,3.90
2022-09-06T03:00:20.768Z,4.10
2022-09-06T03:00:32.469Z,4.22
2022-09-06T03:00:43.786Z,4.20
2022-09-06T03:00:55.137Z,4.00
2022-09-06T03:01:06.666Z,4.00
2022-09-06T03:01:18.049Z,3.85
2022-09-06T03:01:29.458Z,5.00
2022-09-06T03:01:41.729Z,4.90
2022-09-06T03:01:53.094Z,4.85
2022-09-06T03:02:04.482Z,4.22
2022-09-06T03:02:17.379Z,4.65
2022-09-06T03:02:28.827Z,4.40
2022-09-06T03:02:40.218Z,3.72
2022-09-06T03:02:51.584Z,3.88
2022-09-06T03:03:03.260Z,4.13
2022-09-06T03:03:14.566Z,4.28
2022-09-06T03:03:26.383Z,4.03
2022-09-06T03:03:37.780Z,4.20
2022-09-06T03:03:49.072Z,4.10